createdAt,value
2022-09-18T00:01:16.361Z,99138.13
2022-09-18T00:03:43.682Z,99129.59
2022-09-18T00:06:13.675Z,99133.94
2022-09-18T00:08:41.288Z,99134.03
2022-09-18T00:11:10.843Z,99133.28
2022-09-18T00:13:39.334Z,99133.47
2022-09-18T00:16:08.325Z,99126.63
2022-09-18T00:18:36.012Z,99115.66
2022-09-18T00:21:15.194Z,99123.22
2022-09-18T00:23:43.102Z,99123.31
2022-09-18T00:26:12.171Z,99125.09
2022-09-18T00:28:39.208Z,99121.03
2022-09-18T00:31:18.633Z,99132.16
2022-09-18T00:33:46.371Z,99130.47
2022-09-18T00:36:16.890Z,99134.91
2022-09-18T00:38:44.016Z,99130.66
2022-09-18T00:41:25.787Z,99137.63
2022-09-18T00:43:54.637Z,99132.53
2022-09-18T00:46:26.996Z,99146.34
2022-09-18T00:49:10.678Z,99136.09
2022-09-18T00:51:40.050Z,99138.69
2022-09-18T00:54:15.345Z,99143.00
2022-09-18T00:56:43.375Z,99139.50
2022-09-18T00:59:15.763Z,99135.31
2022-09-18T01:01:43.102Z,99137.91
2022-09-18T01:04:13.328Z,99134.59
2022-09-18T01:06:54.240Z,99129.69
2022-09-18T01:09:48.961Z,99129.59
2022-09-18T01:12:27.773Z,99121.13
2022-09-18T01:15:10.480Z,99121.13
2022-09-18T01:18:17.361Z,99116.81
2022-09-18T01:21:02.758Z,99115.28
2022-09-18T01:23:57.480Z,99120.63
2022-09-18T01:26:57.065Z,99126.75
2022-09-18T01:29:42.838Z,99116.41
2022-09-18T01:32:28.177Z,99125.13
2022-09-18T01:35:40.963Z,99125.03
2022-09-18T01:38:20.185Z,99121.56
2022-09-18T01:40:49.122Z,99127.72
2022-09-18T01:43:19.359Z,99125.03
2022-09-18T01:45:54.001Z,99114.97
2022-09-18T01:48:32.259Z,99133.78
2022-09-18T01:51:12.819Z,99135.56
2022-09-18T01:53:46.409Z,99128.78
2022-09-18T01:56:20.190Z,99127.06
2022-09-18T01:58:49.650Z,99123.72
2022-09-18T02:01:21.142Z,99125.47
2022-09-18T02:03:57.360Z,99113.59
2022-09-18T02:06:30.093Z,99113.59
2022-09-18T02:09:01.289Z,99110.19
2022-09-18T02:11:32.159Z,99115.53
2022-09-18T02:14:15.048Z,99112.09
2022-09-18T02:17:03.360Z,99117.19
2022-09-18T02:19:39.038Z,99118.94
2022-09-18T02:22:11.114Z,99119.03
2022-09-18T02:24:41.113Z,99109.66
2022-09-18T02:27:09.808Z,99115.81
2022-09-18T02:29:37.478Z,99102.38
2022-09-18T02:32:05.077Z,99122.66
2022-09-18T02:34:33.358Z,99114.19
2022-09-18T02:37:06.762Z,99124.44
2022-09-18T02:39:55.823Z,99127.91
2022-09-18T02:42:36.323Z,99131.41
2022-09-18T02:45:14.804Z,99113.59
2022-09-18T02:48:13.091Z,99126.34
2022-09-18T02:50:55.584Z,99126.44
2022-09-18T02:53:30.638Z,99124.97
2022-09-18T02:56:03.711Z,99125.84
2022-09-18T02:58:55.281Z,99135.31
2022-09-18T03:01:26.988Z,99126.78
2022-09-18T03:03:55.090Z,99137.09
2022-09-18T03:06:34.560Z,99134.53
2022-09-18T03:09:01.669Z,99132.69
2022-09-18T03:11:30.678Z,99120.06
2022-09-18T03:13:57.649Z,99129.44
2022-09-18T03:16:24.956Z,99118.50
2022-09-18T03:18:52.198Z,99135.56
2022-09-18T03:21:19.198Z,99139.13
2022-09-18T03:23:46.218Z,99111.09
2022-09-18T03:26:22.760Z,99142.66
2022-09-18T03:28:50.720Z,99138.41
2022-09-18T03:31:19.082Z,99142.72
2022-09-18T03:33:47.127Z,99141.03
2022-09-18T03:36:14.330Z,99142.72
2022-09-18T03:38:41.961Z,99135.88
2022-09-18T03:41:09.699Z,99142.66
2022-09-18T03:43:40.598Z,99133.31
2022-09-18T03:46:10.090Z,99145.22
2022-09-18T03:48:37.958Z,99140.88
2022-09-18T03:51:05.293Z,99137.31
2022-09-18T03:53:33.137Z,99142.56
2022-09-18T03:56:19.269Z,99142.66
2022-09-18T03:58:59.648Z,99140.97
2022-09-18T04:01:50.132Z,99140.13
2022-09-18T04:04:26.958Z,99138.56
2022-09-18T04:07:12.721Z,99152.97
2022-09-18T04:09:53.122Z,99140.97
2022-09-18T04:12:20.624Z,99142.56
2022-09-18T04:14:55.521Z,99135.78
2022-09-18T04:17:23.958Z,99146.06
2022-09-18T04:19:53.598Z,99139.25
2022-09-18T04:22:22.281Z,99131.56
2022-09-18T04:24:50.644Z,99129.91
2022-09-18T04:27:18.158Z,99129.00
2022-09-18T04:29:45.278Z,99133.41
2022-09-18T04:32:13.803Z,99130.06
2022-09-18T04:34:40.896Z,99124.06
2022-09-18T04:37:10.575Z,99117.28
2022-09-18T04:39:39.078Z,99134.41
2022-09-18T04:42:06.448Z,99119.06
2022-09-18T04:44:33.632Z,99131.00
2022-09-18T04:47:00.994Z,99118.34
2022-09-18T04:49:28.123Z,99136.16
2022-09-18T04:51:55.179Z,99131.91
2022-09-18T04:54:22.278Z,99121.59
2022-09-18T04:56:49.477Z,99127.53
2022-09-18T04:59:17.522Z,99130.00
2022-09-18T05:01:47.002Z,99132.56
2022-09-18T05:04:15.033Z,99112.91
2022-09-18T05:06:54.822Z,99127.38
2022-09-18T05:09:22.838Z,99123.91
2022-09-18T05:11:49.881Z,99134.16
2022-09-18T05:14:17.959Z,99123.75
2022-09-18T05:16:48.128Z,99127.16
2022-09-18T05:19:44.641Z,99125.31
2022-09-18T05:22:21.277Z,99122.81
2022-09-18T05:24:51.069Z,99123.00
2022-09-18T05:27:18.158Z,99128.78
2022-09-18T05:29:45.690Z,99132.22
2022-09-18T05:32:20.441Z,99127.78
2022-09-18T05:34:50.242Z,99135.38
2022-09-18T05:37:18.677Z,99137.19
2022-09-18T05:39:49.721Z,99137.22
2022-09-18T05:42:16.829Z,99143.97
2022-09-18T05:44:44.419Z,99130.13
2022-09-18T05:47:17.021Z,99143.97
2022-09-18T05:49:44.169Z,99147.34
2022-09-18T05:52:11.241Z,99147.19
2022-09-18T05:54:39.679Z,99129.28
2022-09-18T05:57:08.685Z,99133.31
2022-09-18T05:59:35.801Z,99133.19
2022-09-18T06:02:03.333Z,99109.25
2022-09-18T06:04:49.202Z,99122.06
2022-09-18T06:07:17.770Z,99119.59
2022-09-18T06:09:44.926Z,99130.47
2022-09-18T06:12:12.447Z,99129.56
2022-09-18T06:14:39.510Z,99134.56
2022-09-18T06:17:06.848Z,99118.50
2022-09-18T06:19:35.360Z,99122.59
2022-09-18T06:22:02.559Z,99140.66
2022-09-18T06:24:29.641Z,99133.72
2022-09-18T06:27:05.242Z,99141.22
2022-09-18T06:29:32.364Z,99120.72
2022-09-18T06:32:05.815Z,99146.09
2022-09-18T06:34:36.727Z,99139.22
2022-09-18T06:37:10.249Z,99137.31
2022-09-18T06:39:43.969Z,99137.31
2022-09-18T06:42:29.483Z,99132.34
2022-09-18T06:45:11.891Z,99135.66
2022-09-18T06:47:39.651Z,99132.13
2022-09-18T06:50:08.327Z,99127.16
2022-09-18T06:52:36.438Z,99128.59
2022-09-18T06:55:05.847Z,99138.13
2022-09-18T06:57:33.720Z,99139.78
2022-09-18T07:00:00.922Z,99143.94
2022-09-18T07:02:33.504Z,99145.66
2022-09-18T07:05:19.366Z,99144.88
2022-09-18T07:07:46.854Z,99150.84
2022-09-18T07:10:14.107Z,99149.22
2022-09-18T07:12:48.634Z,99149.22
2022-09-18T07:15:19.773Z,99156.00
2022-09-18T07:17:46.929Z,99157.69
2022-09-18T07:20:16.839Z,99145.72
2022-09-18T07:22:47.473Z,99144.03
2022-09-18T07:25:15.653Z,99149.13
2022-09-18T07:27:44.127Z,99157.34
2022-09-18T07:30:12.968Z,99156.34
2022-09-18T07:32:40.040Z,99141.75
2022-09-18T07:35:13.440Z,99155.31
2022-09-18T07:37:41.087Z,99150.03
2022-09-18T07:40:17.323Z,99156.81
2022-09-18T07:43:08.796Z,99155.13
2022-09-18T07:45:38.663Z,99158.41
2022-09-18T07:48:07.737Z,99159.22
2022-09-18T07:50:40.757Z,99139.50
2022-09-18T07:53:10.351Z,99158.22
2022-09-18T07:55:42.640Z,99165.97
2022-09-18T07:58:10.091Z,99160.69
2022-09-18T08:01:12.698Z,99167.53
2022-09-18T08:03:53.103Z,99167.28
2022-09-18T08:06:20.722Z,99137.22
2022-09-18T08:08:56.441Z,99157.56
2022-09-18T08:11:38.181Z,99145.44
2022-09-18T08:14:28.917Z,99158.09
2022-09-18T08:17:16.230Z,99157.22
2022-09-18T08:20:03.139Z,99159.63
2022-09-18T08:22:44.425Z,99154.47
2022-09-18T08:25:12.831Z,99151.06
2022-09-18T08:27:42.688Z,99163.78
2022-09-18T08:30:12.124Z,99167.28
2022-09-18T08:32:40.062Z,99164.63
2022-09-18T08:35:09.683Z,99167.28
2022-09-18T08:37:37.219Z,99166.38
2022-09-18T08:40:36.715Z,99162.94
2022-09-18T08:43:18.506Z,99167.28
2022-09-18T08:46:09.676Z,99168.13
2022-09-18T08:49:17.442Z,99172.34
2022-09-18T08:52:09.160Z,99163.59
2022-09-18T08:54:46.361Z,99169.66
2022-09-18T08:57:42.722Z,99166.97
2022-09-18T09:00:48.422Z,99170.28
2022-09-18T09:03:35.108Z,99170.28
2022-09-18T09:06:16.388Z,99154.72
2022-09-18T09:09:06.863Z,99160.69
2022-09-18T09:12:12.458Z,99147.88
2022-09-18T09:14:57.572Z,99169.94
2022-09-18T09:17:48.481Z,99169.72
2022-09-18T09:20:53.032Z,99169.63
2022-09-18T09:23:44.997Z,99167.94
2022-09-18T09:26:26.388Z,99162.94
2022-09-18T09:29:05.494Z,99173.22
2022-09-18T09:32:16.022Z,99180.19
2022-09-18T09:35:29.843Z,99179.06
2022-09-18T09:38:52.615Z,99185.16
2022-09-18T09:41:37.559Z,99183.59
2022-09-18T09:44:33.963Z,99198.97
2022-09-18T09:47:03.842Z,99195.31
2022-09-18T09:49:44.954Z,99174.91
2022-09-18T09:52:24.007Z,99191.84
2022-09-18T09:55:27.443Z,99193.44
2022-09-18T09:58:20.410Z,99202.13
2022-09-18T10:00:59.949Z,99196.72
2022-09-18T10:03:40.211Z,99203.63
2022-09-18T10:06:19.306Z,99207.00
2022-09-18T10:09:19.602Z,99207.81
2022-09-18T10:12:04.895Z,99206.81
2022-09-18T10:14:38.446Z,99191.31
2022-09-18T10:17:07.208Z,99204.88
2022-09-18T10:19:37.977Z,99210.63
2022-09-18T10:22:08.236Z,99214.63
2022-09-18T10:24:47.238Z,99182.13
2022-09-18T10:27:17.510Z,99217.81
2022-09-18T10:29:46.079Z,99222.88
2022-09-18T10:32:41.682Z,99226.28
2022-09-18T10:35:31.496Z,99216.81
2022-09-18T10:37:59.608Z,99217.59
2022-09-18T10:40:40.422Z,99217.59
2022-09-18T10:43:18.799Z,99216.13
2022-09-18T10:45:53.114Z,99222.88
2022-09-18T10:48:31.754Z,99221.22
2022-09-18T10:51:03.605Z,99222.78
2022-09-18T10:53:39.962Z,99220.19
2022-09-18T10:56:20.352Z,99224.28
2022-09-18T10:58:50.770Z,99222.47
2022-09-18T11:01:18.956Z,99219.50
2022-09-18T11:04:06.809Z,99225.31
2022-09-18T11:06:37.850Z,99221.84
2022-09-18T11:09:37.503Z,99219.81
2022-09-18T11:12:06.062Z,99222.91
2022-09-18T11:14:43.844Z,99219.13
2022-09-18T11:17:30.495Z,99210.31
2022-09-18T11:20:00.761Z,99225.78
2022-09-18T11:22:48.200Z,99215.41
2022-09-18T11:25:25.085Z,99217.09
2022-09-18T11:27:58.412Z,99211.84
2022-09-18T11:30:31.485Z,99211.72
2022-09-18T11:33:27.530Z,99210.81
2022-09-18T11:36:08.001Z,99208.75
2022-09-18T11:38:42.558Z,99216.31
2022-09-18T11:41:12.333Z,99212.81
2022-09-18T11:43:44.994Z,99214.50
2022-09-18T11:46:42.263Z,99216.56
2022-09-18T11:49:26.124Z,99215.06
2022-09-18T11:51:59.885Z,99214.31
2022-09-18T11:54:54.185Z,99208.75
2022-09-18T11:57:49.159Z,99215.19
2022-09-18T12:00:22.358Z,99211.09
2022-09-18T12:03:02.537Z,99213.09
2022-09-18T12:06:21.210Z,99207.63
2022-09-18T12:09:04.280Z,99217.53
2022-09-18T12:11:59.599Z,99214.44
2022-09-18T12:14:48.050Z,99211.44
2022-09-18T12:17:41.287Z,99208.22
2022-09-18T12:20:20.670Z,99199.03
2022-09-18T12:22:59.239Z,99214.72
2022-09-18T12:26:02.980Z,99209.16
2022-09-18T12:29:05.074Z,99211.09
2022-09-18T12:32:03.909Z,99210.88
2022-09-18T12:34:59.015Z,99209.09
2022-09-18T12:38:13.908Z,99203.81
2022-09-18T12:41:13.953Z,99197.72
2022-09-18T12:43:55.773Z,99159.97
2022-09-18T12:46:41.244Z,99206.06
2022-09-18T12:49:52.769Z,99209.00
2022-09-18T12:53:06.291Z,99207.56
2022-09-18T12:55:52.154Z,99211.63
2022-09-18T12:58:54.320Z,99215.56
2022-09-18T13:01:30.473Z,99215.88
2022-09-18T13:04:07.238Z,99216.28
2022-09-18T13:06:45.440Z,99212.50
2022-09-18T13:09:25.147Z,99215.06
2022-09-18T13:12:19.066Z,99209.28
2022-09-18T13:14:53.671Z,99197.69
2022-09-18T13:17:29.119Z,99212.63
2022-09-18T13:20:07.037Z,99216.50
2022-09-18T13:22:37.833Z,99205.00
2022-09-18T13:25:15.165Z,99220.34
2022-09-18T13:27:42.482Z,99223.09
2022-09-18T13:30:27.062Z,99228.00
2022-09-18T13:32:55.013Z,99223.44
2022-09-18T13:35:46.786Z,99224.06
2022-09-18T13:38:16.317Z,99236.53
2022-09-18T13:40:48.010Z,99231.56
2022-09-18T13:43:40.917Z,99236.53
2022-09-18T13:46:10.278Z,99236.78
2022-09-18T13:48:39.995Z,99238.84
2022-09-18T13:51:20.374Z,99237.31
2022-09-18T13:53:47.317Z,99246.34
2022-09-18T13:56:16.485Z,99248.13
2022-09-18T13:59:00.557Z,99253.59
2022-09-18T14:01:43.183Z,99243.19
2022-09-18T14:04:43.770Z,99246.66
2022-09-18T14:07:16.449Z,99243.19
2022-09-18T14:09:52.510Z,99242.03
2022-09-18T14:12:21.089Z,99243.53
2022-09-18T14:15:21.382Z,99245.84
2022-09-18T14:18:16.486Z,99245.13
2022-09-18T14:20:50.477Z,99245.16
2022-09-18T14:23:35.726Z,99245.16
2022-09-18T14:26:09.115Z,99235.94
2022-09-18T14:28:36.744Z,99230.00
2022-09-18T14:31:14.189Z,99234.09
2022-09-18T14:33:43.518Z,99233.22
2022-09-18T14:36:14.643Z,99232.16
2022-09-18T14:38:42.036Z,99226.75
2022-09-18T14:41:19.529Z,99232.59
2022-09-18T14:44:00.443Z,99233.38
2022-09-18T14:46:28.720Z,99235.09
2022-09-18T14:48:55.852Z,99236.66
2022-09-18T14:51:26.091Z,99240.50
2022-09-18T14:53:58.517Z,99221.97
2022-09-18T14:56:36.772Z,99228.38
2022-09-18T14:59:06.849Z,99229.81
2022-09-18T15:01:40.746Z,99224.50
2022-09-18T15:04:26.066Z,99219.56
2022-09-18T15:06:55.079Z,99228.25
2022-09-18T15:09:33.063Z,99228.50
2022-09-18T15:12:02.998Z,99229.66
2022-09-18T15:14:40.779Z,99227.44
2022-09-18T15:17:36.168Z,99223.38
2022-09-18T15:20:16.262Z,99224.44
2022-09-18T15:22:43.781Z,99217.78
2022-09-18T15:25:15.136Z,99224.06
2022-09-18T15:27:44.874Z,99216.34
2022-09-18T15:30:18.941Z,99225.84
2022-09-18T15:33:16.906Z,99225.03
2022-09-18T15:35:45.241Z,99224.06
2022-09-18T15:38:19.416Z,99212.84
2022-09-18T15:40:47.549Z,99221.44
2022-09-18T15:43:43.611Z,99216.22
2022-09-18T15:46:23.738Z,99218.75
2022-09-18T15:48:52.257Z,99214.50
2022-09-18T15:51:31.659Z,99202.31
2022-09-18T15:54:06.262Z,99215.50
2022-09-18T15:56:34.716Z,99211.00
2022-09-18T15:59:06.637Z,99209.78
2022-09-18T16:01:40.075Z,99215.50
2022-09-18T16:04:15.288Z,99216.28
2022-09-18T16:06:50.155Z,99220.56
2022-09-18T16:09:35.964Z,99227.59
2022-09-18T16:12:31.667Z,99225.25
2022-09-18T16:15:08.510Z,99234.94
2022-09-18T16:17:38.154Z,99236.22
2022-09-18T16:20:39.712Z,99236.53
2022-09-18T16:23:20.011Z,99243.78
2022-09-18T16:26:15.662Z,99235.44
2022-09-18T16:28:45.360Z,99242.56
2022-09-18T16:31:17.145Z,99244.50
2022-09-18T16:33:51.954Z,99238.59
2022-09-18T16:36:34.468Z,99245.72
2022-09-18T16:39:24.175Z,99245.00
2022-09-18T16:41:51.273Z,99241.72
2022-09-18T16:44:19.192Z,99240.03
2022-09-18T16:47:00.744Z,99239.41
2022-09-18T16:49:36.461Z,99236.75
2022-09-18T16:52:04.280Z,99243.88
2022-09-18T16:54:31.553Z,99252.59
2022-09-18T16:57:10.242Z,99247.50
2022-09-18T16:59:41.003Z,99254.59
2022-09-18T17:02:09.174Z,99249.75
2022-09-18T17:04:36.234Z,99248.19
2022-09-18T17:07:03.490Z,99248.25
2022-09-18T17:09:30.760Z,99246.69
2022-09-18T17:11:57.990Z,99258.88
2022-09-18T17:14:25.366Z,99252.22
2022-09-18T17:16:52.607Z,99258.38
2022-09-18T17:19:20.311Z,99262.81
2022-09-18T17:21:47.510Z,99256.03
2022-09-18T17:24:14.590Z,99270.00
2022-09-18T17:26:42.442Z,99259.06
2022-09-18T17:29:11.498Z,99273.88
2022-09-18T17:31:38.667Z,99270.56
2022-09-18T17:34:06.162Z,99267.19
2022-09-18T17:36:36.969Z,99275.88
2022-09-18T17:39:04.870Z,99284.66
2022-09-18T17:41:33.137Z,99282.16
2022-09-18T17:44:00.202Z,99286.44
2022-09-18T17:46:27.649Z,99256.78
2022-09-18T17:48:56.886Z,99284.88
2022-09-18T17:51:28.428Z,99284.97
2022-09-18T17:54:02.979Z,99288.56
2022-09-18T17:56:31.283Z,99292.06
2022-09-18T17:59:00.517Z,99294.75
2022-09-18T18:01:29.445Z,99293.97
2022-09-18T18:03:57.463Z,99287.97
2022-09-18T18:06:25.153Z,99286.31
2022-09-18T18:08:52.831Z,99290.88
2022-09-18T18:11:22.687Z,99291.00
2022-09-18T18:13:51.271Z,99287.84
2022-09-18T18:16:23.913Z,99296.53
2022-09-18T18:18:54.392Z,99300.22
2022-09-18T18:21:21.384Z,99295.34
2022-09-18T18:23:49.303Z,99293.72
2022-09-18T18:26:16.576Z,99286.22
2022-09-18T18:28:45.163Z,99295.63
2022-09-18T18:31:14.658Z,99294.72
2022-09-18T18:33:43.194Z,99295.63
2022-09-18T18:36:14.943Z,99299.09
2022-09-18T18:38:45.485Z,99297.31
2022-09-18T18:41:13.968Z,99295.69
2022-09-18T18:43:41.477Z,99291.53
2022-09-18T18:46:12.919Z,99294.13
2022-09-18T18:48:41.079Z,99296.84
2022-09-18T18:51:11.326Z,99300.25
2022-09-18T18:53:38.724Z,99304.69
2022-09-18T18:56:11.514Z,99306.53
2022-09-18T18:58:39.392Z,99303.22
2022-09-18T19:01:14.382Z,99308.41
2022-09-18T19:03:55.561Z,99311.97
2022-09-18T19:06:27.320Z,99305.09
2022-09-18T19:09:00.220Z,99308.59
2022-09-18T19:11:30.223Z,99308.59
2022-09-18T19:13:57.720Z,99315.44
2022-09-18T19:16:26.680Z,99308.69
2022-09-18T19:18:59.797Z,99311.28
2022-09-18T19:21:28.380Z,99306.88
2022-09-18T19:23:59.416Z,99314.72
2022-09-18T19:26:28.602Z,99317.13
2022-09-18T19:29:01.035Z,99312.03
2022-09-18T19:31:29.579Z,99312.06
2022-09-18T19:33:58.043Z,99315.44
2022-09-18T19:36:28.684Z,99306.88
2022-09-18T19:38:58.209Z,99311.19
2022-09-18T19:41:28.910Z,99306.16
2022-09-18T19:43:56.372Z,99308.84
2022-09-18T19:46:27.791Z,99308.75
2022-09-18T19:48:55.245Z,99293.47
2022-09-18T19:51:23.153Z,99311.44
2022-09-18T19:53:50.300Z,99303.09
2022-09-18T19:56:39.361Z,99309.03
2022-09-18T19:59:05.580Z,99306.53
2022-09-18T20:01:33.354Z,99304.03
2022-09-18T20:04:00.445Z,99302.50
2022-09-18T20:06:27.605Z,99289.09
2022-09-18T20:08:54.723Z,99298.47
2022-09-18T20:11:22.052Z,99308.72
2022-09-18T20:13:53.743Z,99302.78
2022-09-18T20:16:21.399Z,99301.16
2022-09-18T20:18:49.596Z,99317.53
2022-09-18T20:21:18.674Z,99308.97
2022-09-18T20:23:47.859Z,99310.00
2022-09-18T20:26:17.674Z,99302.22
2022-09-18T20:28:45.320Z,99300.56
2022-09-18T20:31:15.228Z,99304.03
2022-09-18T20:33:42.781Z,99303.28
2022-09-18T20:36:11.617Z,99297.34
2022-09-18T20:38:40.954Z,99300.22
2022-09-18T20:41:14.136Z,99307.00
2022-09-18T20:43:42.633Z,99300.22
2022-09-18T20:46:16.370Z,99304.53
2022-09-18T20:48:58.317Z,99291.81
2022-09-18T20:51:32.599Z,99297.78
2022-09-18T20:53:59.714Z,99301.22
2022-09-18T20:56:33.988Z,99305.53
2022-09-18T20:59:05.154Z,99297.84
2022-09-18T21:01:38.118Z,99294.50
2022-09-18T21:04:05.337Z,99291.94
2022-09-18T21:06:34.127Z,99298.84
2022-09-18T21:09:08.729Z,99304.84
2022-09-18T21:11:41.207Z,99263.28
2022-09-18T21:14:11.812Z,99304.19
2022-09-18T21:16:43.678Z,99309.50
2022-09-18T21:19:12.766Z,99282.41
2022-09-18T21:21:40.310Z,99306.31
2022-09-18T21:24:09.045Z,99304.72
2022-09-18T21:26:36.080Z,99309.00
2022-09-18T21:29:14.963Z,99308.34
2022-09-18T21:31:43.232Z,99309.94
2022-09-18T21:34:15.998Z,99312.59
2022-09-18T21:36:46.410Z,99301.53
2022-09-18T21:39:13.999Z,99308.50
2022-09-18T21:41:46.307Z,99319.72
2022-09-18T21:44:17.437Z,99315.44
2022-09-18T21:46:46.101Z,99311.97
2022-09-18T21:49:15.122Z,99313.81
2022-09-18T21:51:42.701Z,99314.63
2022-09-18T21:54:15.423Z,99317.28
2022-09-18T21:56:44.364Z,99310.56
2022-09-18T21:59:11.960Z,99319.88
2022-09-18T22:01:39.176Z,99318.28
2022-09-18T22:04:07.471Z,99324.50
2022-09-18T22:06:41.741Z,99319.28
2022-09-18T22:09:33.724Z,99328.78
2022-09-18T22:12:01.489Z,99326.25
2022-09-18T22:14:32.389Z,99323.66
2022-09-18T22:17:04.855Z,99320.31
2022-09-18T22:19:33.476Z,99322.06
2022-09-18T22:22:01.612Z,99328.09
2022-09-18T22:24:29.348Z,99326.31
2022-09-18T22:26:59.541Z,99322.84
2022-09-18T22:29:28.168Z,99334.84
2022-09-18T22:31:55.869Z,99328.81
2022-09-18T22:34:26.596Z,99331.38
2022-09-18T22:36:54.275Z,99338.28
2022-09-18T22:39:22.479Z,99332.22
2022-09-18T22:41:51.724Z,99337.41
2022-09-18T22:44:21.518Z,99326.31
2022-09-18T22:46:49.904Z,99330.59
2022-09-18T22:49:18.523Z,99336.59
2022-09-18T22:51:46.439Z,99333.25
2022-09-18T22:54:15.359Z,99327.31
2022-09-18T22:56:47.719Z,99326.47
2022-09-18T22:59:16.742Z,99328.16
2022-09-18T23:01:49.194Z,99329.09
2022-09-18T23:04:21.043Z,99325.81
2022-09-18T23:06:48.563Z,99326.59
2022-09-18T23:09:18.000Z,99327.56
2022-09-18T23:11:48.090Z,99319.88
2022-09-18T23:14:20.679Z,99321.56
2022-09-18T23:16:49.351Z,99319.97
2022-09-18T23:19:22.799Z,99321.66
2022-09-18T23:21:50.684Z,99328.56
2022-09-18T23:24:18.352Z,99332.06
2022-09-18T23:26:47.972Z,99332.19
2022-09-18T23:29:18.561Z,99327.06
2022-09-18T23:31:47.589Z,99334.81
2022-09-18T23:34:18.649Z,99342.63
2022-09-18T23:36:48.405Z,99337.53
2022-09-18T23:39:21.659Z,99329.94
2022-09-18T23:41:49.279Z,99334.28
2022-09-18T23:44:17.942Z,99324.06
2022-09-18T23:46:46.060Z,99331.66
2022-09-18T23:49:14.525Z,99311.22
2022-09-18T23:51:44.480Z,99331.63
2022-09-18T23:54:19.038Z,99318.84
2022-09-18T23:56:46.799Z,99326.53
2022-09-18T23:59:17.769Z,99329.84
